Wednesday, January 17, 2018, 6:31 AM EST
Back to Local

KLOM, Philadelphia, Wings Field Airport

Location: Blue Bell, PA, United States Lat: 40.138
Local Time: 6:31 AM EST (11:31 GMT) Lon: -75.265
Time Zone: US/Eastern Elev: 301 ft

Show me the last for .
Show Decoded

2018-01-17 06:15 METAR KLOM 171115Z AUTO 00000KT 4SM OVC007 00/00 A3030 RMK AO1 =
2018-01-17 05:35 METAR KLOM 171035Z AUTO 00000KT 3SM OVC005 00/00 A3029 RMK AO1 =
2018-01-17 05:15 METAR KLOM 171015Z AUTO 00000KT 2 1/2SM OVC005 00/00 A3029 RMK AO1 =
2018-01-17 04:55 METAR KLOM 170955Z AUTO 00000KT 2SM OVC005 00/00 A3029 RMK AO1 =
2018-01-17 04:35 METAR KLOM 170935Z AUTO 00000KT 2SM OVC005 00/00 A3029 RMK AO1 =
2018-01-17 04:15 METAR KLOM 170915Z AUTO 00000KT 2 1/2SM SCT005 SCT014 OVC023 00/00 A3029 RMK AO1
                 =
2018-01-17 03:55 METAR KLOM 170855Z AUTO 00000KT 2 1/2SM BKN003 OVC021 00/00 A3029 RMK AO1 =
2018-01-17 03:35 METAR KLOM 170835Z AUTO 00000KT 2 1/2SM BKN003 OVC017 00/00 A3029 RMK AO1 =
2018-01-17 03:15 METAR KLOM 170815Z AUTO 31003KT 2 1/2SM OVC003 00/00 A3030 RMK AO1 =
2018-01-17 02:55 METAR KLOM 170755Z AUTO 00000KT 3SM OVC003 00/00 A3030 RMK AO1 =
2018-01-17 02:35 METAR KLOM 170735Z AUTO 00000KT 2 1/2SM OVC003 00/00 A3030 RMK AO1 =
2018-01-17 02:15 METAR KLOM 170715Z AUTO 00000KT 2 1/2SM OVC003 00/00 A3030 RMK AO1 =
2018-01-17 01:55 METAR KLOM 170655Z AUTO 00000KT 2 1/2SM BKN003 OVC013 00/00 A3030 RMK AO1 =
2018-01-17 01:35 METAR KLOM 170635Z AUTO 00000KT 3SM SCT003 OVC013 00/00 A3030 RMK AO1 =
2018-01-17 01:15 METAR KLOM 170615Z AUTO 00000KT 3SM OVC013 00/00 A3031 RMK AO1 =
2018-01-17 00:55 METAR KLOM 170555Z AUTO 00000KT 4SM CLR 00/00 A3031 RMK AO1 =
2018-01-17 00:35 METAR KLOM 170535Z AUTO 00000KT 7SM SCT015 SCT020 00/00 A3032 RMK AO1 =
2018-01-17 00:15 METAR KLOM 170515Z AUTO 00000KT 7SM BKN015 OVC019 00/00 A3032 RMK AO1 =
2018-01-16 23:55 METAR KLOM 170455Z AUTO 00000KT 7SM BKN015 BKN026 OVC049 00/00 A3033 RMK AO1 =
2018-01-16 23:35 METAR KLOM 170435Z AUTO 00000KT 10SM SCT019 BKN041 OVC049 00/00 A3033 RMK AO1 =
2018-01-16 23:15 METAR KLOM 170415Z AUTO 00000KT 10SM SCT023 BKN036 OVC050 00/00 A3034 RMK AO1 =
2018-01-16 22:55 METAR KLOM 170355Z AUTO 00000KT 10SM SCT021 BKN039 OVC050 00/M01 A3034 RMK AO1 =
2018-01-16 22:35 METAR KLOM 170335Z AUTO 00000KT 10SM SCT022 BKN028 OVC035 00/M01 A3035 RMK AO1 =
2018-01-16 22:15 METAR KLOM 170315Z AUTO 00000KT 10SM SCT021 BKN026 OVC036 00/M01 A3035 RMK AO1 =
2018-01-16 21:55 METAR KLOM 170255Z AUTO 00000KT 10SM BKN021 BKN028 OVC036 00/M01 A3036 RMK AO1 =
2018-01-16 21:35 METAR KLOM 170235Z AUTO 00000KT 10SM OVC021 00/M01 A3036 RMK AO1 =
2018-01-16 21:15 METAR KLOM 170215Z AUTO 00000KT 10SM BKN023 BKN030 OVC034 00/M01 A3036 RMK AO1 =
2018-01-16 20:55 METAR KLOM 170155Z AUTO 00000KT 10SM OVC034 00/M01 A3036 RMK AO1 =
2018-01-16 20:35 METAR KLOM 170135Z AUTO 00000KT 10SM BKN034 00/M01 A3036 RMK AO1 =
2018-01-16 20:15 METAR KLOM 170115Z AUTO 00000KT 10SM SCT026 BKN034 00/M01 A3037 RMK AO1 =
2018-01-16 19:55 METAR KLOM 170055Z AUTO 00000KT 10SM BKN026 BKN033 01/M01 A3037 RMK AO1 =
2018-01-16 19:35 METAR KLOM 170035Z AUTO 00000KT 10SM OVC026 01/M01 A3037 RMK AO1 =
2018-01-16 19:15 METAR KLOM 170015Z AUTO 00000KT 10SM BKN026 OVC031 00/M01 A3038 RMK AO1 =
2018-01-16 18:55 METAR KLOM 162355Z AUTO 00000KT 10SM OVC030 00/M01 A3038 RMK AO1 =
2018-01-16 18:35 METAR KLOM 162335Z AUTO 00000KT 10SM OVC032 00/M01 A3038 RMK AO1 =
2018-01-16 18:15 METAR KLOM 162315Z AUTO 00000KT 10SM BKN032 BKN038 00/M01 A3039 RMK AO1 =
2018-01-16 17:55 METAR KLOM 162255Z AUTO 00000KT 10SM BKN037 00/M02 A3038 RMK AO1 =
2018-01-16 17:35 METAR KLOM 162235Z AUTO 00000KT 10SM BKN035 01/M01 A3038 RMK AO1 =
2018-01-16 17:15 METAR KLOM 162215Z AUTO 00000KT 10SM SCT033 00/M01 A3038 RMK AO1 =
2018-01-16 16:55 METAR KLOM 162155Z AUTO 00000KT 10SM CLR 01/M01 A3038 RMK AO1 =
2018-01-16 16:35 METAR KLOM 162135Z AUTO 00000KT 10SM SCT065 02/M01 A3038 RMK AO1 =
2018-01-16 16:15 METAR KLOM 162115Z AUTO 00000KT 10SM SCT065 03/M01 A3038 RMK AO1 =
2018-01-16 15:55 METAR KLOM 162055Z AUTO 00000KT 10SM CLR 04/M01 A3038 RMK AO1 =
2018-01-16 15:35 METAR KLOM 162035Z AUTO 00000KT 10SM CLR 04/M01 A3037 RMK AO1 =
2018-01-16 15:15 METAR KLOM 162015Z AUTO 00000KT 10SM CLR 04/M01 A3038 RMK AO1 =
2018-01-16 14:55 METAR KLOM 161955Z AUTO 21003KT 10SM CLR 04/M01 A3039 RMK AO1 =
2018-01-16 14:35 METAR KLOM 161935Z AUTO 21003KT 10SM CLR 04/M01 A3039 RMK AO1 =
2018-01-16 14:15 METAR KLOM 161915Z AUTO 20005KT 10SM SCT023 SCT065 04/M01 A3040 RMK AO1 =
2018-01-16 13:55 METAR KLOM 161855Z AUTO 00000KT 10SM BKN023 BKN028 OVC065 03/M01 A3041 RMK AO1 =
2018-01-16 13:35 METAR KLOM 161835Z AUTO 00000KT 10SM BKN023 OVC065 03/M01 A3042 RMK AO1 =
2018-01-16 13:15 METAR KLOM 161815Z AUTO 17003KT 10SM BKN023 BKN065 03/M01 A3042 RMK AO1 =
2018-01-16 12:55 METAR KLOM 161755Z AUTO 00000KT 10SM SCT023 OVC065 02/M01 A3042 RMK AO1 =
2018-01-16 12:35 METAR KLOM 161735Z AUTO 18004KT 10SM OVC065 02/M02 A3043 RMK AO1 =
2018-01-16 12:15 METAR KLOM 161715Z AUTO 16004KT 10SM SCT024 OVC065 03/M01 A3043 RMK AO1 =
2018-01-16 11:55 METAR KLOM 161655Z AUTO 00000KT 10SM BKN024 BKN065 02/M02 A3045 RMK AO1 =
2018-01-16 11:35 METAR KLOM 161635Z AUTO 13004KT 10SM BKN024 BKN065 01/M02 A3046 RMK AO1 =
2018-01-16 11:15 METAR KLOM 161615Z AUTO 00000KT 10SM OVC024 01/M02 A3047 RMK AO1 =
2018-01-16 10:55 METAR KLOM 161555Z AUTO 00000KT 10SM OVC024 00/M02 A3048 RMK AO1 =
2018-01-16 10:35 METAR KLOM 161535Z AUTO 15003KT 10SM OVC026 00/M02 A3049 RMK AO1 =
2018-01-16 10:15 METAR KLOM 161515Z AUTO 13004KT 10SM OVC026 00/M02 A3050 RMK AO1 =
2018-01-16 09:55 METAR KLOM 161455Z AUTO 00000KT 10SM SCT026 BKN070 00/M02 A3050 RMK AO1 =
2018-01-16 09:35 METAR KLOM 161435Z AUTO 00000KT 10SM BKN070 M01/M03 A3049 RMK AO1 =
2018-01-16 09:15 METAR KLOM 161415Z AUTO 00000KT 10SM SCT023 OVC070 M02/M03 A3050 RMK AO1 =
2018-01-16 08:55 METAR KLOM 161355Z AUTO 00000KT 10SM OVC070 M02/M03 A3049 RMK AO1 =
2018-01-16 08:35 METAR KLOM 161335Z AUTO 09003KT 7SM OVC070 M02/M03 A3048 RMK AO1 =
2018-01-16 08:15 METAR KLOM 161315Z AUTO 00000KT 10SM SCT028 OVC070 M03/M04 A3049 RMK AO1 =
2018-01-16 07:55 METAR KLOM 161255Z AUTO 00000KT 4SM BKN028 OVC070 M03/M04 A3050 RMK AO1 =
2018-01-16 07:35 METAR KLOM 161235Z AUTO 00000KT 7SM SCT019 OVC031 M03/M04 A3050 RMK AO1 =
2018-01-16 07:15 METAR KLOM 161215Z AUTO 00000KT 5SM BKN017 OVC023 M03/M04 A3050 RMK AO1 =
2018-01-16 06:55 METAR KLOM 161155Z AUTO 00000KT 5SM OVC017 M03/M04 A3050 RMK AO1 =
2018-01-16 06:35 METAR KLOM 161135Z AUTO 00000KT 5SM BKN014 OVC020 M03/M04 A3049 RMK AO1 =

Support USWX by starting your Amazon purchase here.